Time;durP1;ratioP1;P1;durP2;ratioP2;P2;SDS_P1;SDS_P2;PMS_P1;PMS_P2;Temp;Humidity;BMP_temperature;BMP_pressure;BME280_temperature;BME280_humidity;BME280_pressure;Samples;Min_cycle;Max_cycle;Signal;HPM_P1;HPM_P2
2024/01/22 00:01:52;;;;;;;3.83;2.05;;;;;;;7.25;69.00;100952.66;4944447;29;20075;-64
2024/01/22 00:04:20;;;;;;;4.15;2.53;;;;;;;7.23;69.11;100938.66;4948592;29;20099;-65
2024/01/22 00:06:48;;;;;;;6.32;2.50;;;;;;;7.23;69.26;100922.63;4945484;29;20055;-65
2024/01/22 00:09:16;;;;;;;5.63;2.22;;;;;;;7.25;68.63;100929.41;4943768;29;20051;-65
2024/01/22 00:11:44;;;;;;;4.70;2.38;;;;;;;7.27;68.94;100919.34;4935759;29;20058;-64
2024/01/22 00:14:11;;;;;;;7.50;2.10;;;;;;;7.30;69.16;100907.44;4939577;29;20047;-65
2024/01/22 00:16:41;;;;;;;5.78;2.60;;;;;;;7.33;68.88;100897.19;4943231;29;20055;-65
2024/01/22 00:19:09;;;;;;;4.55;2.40;;;;;;;7.32;69.01;100886.69;4945633;29;20048;-64
2024/01/22 00:21:41;;;;;;;3.92;2.55;;;;;;;7.34;69.46;100879.28;4946363;29;20051;-64
2024/01/22 00:24:09;;;;;;;6.40;3.20;;;;;;;7.33;68.89;100882.97;4942601;29;20126;-65
2024/01/22 00:26:37;;;;;;;3.75;2.47;;;;;;;7.34;69.84;100888.13;4943367;29;20060;-65
2024/01/22 00:29:05;;;;;;;5.80;2.15;;;;;;;7.33;69.38;100896.34;4944911;29;20050;-65
2024/01/22 00:31:33;;;;;;;5.55;2.33;;;;;;;7.32;69.24;100873.31;4945991;29;20059;-65
2024/01/22 00:34:02;;;;;;;5.47;2.70;;;;;;;7.31;69.64;100877.00;4947619;29;20058;-64
2024/01/22 00:36:30;;;;;;;4.25;2.90;;;;;;;7.46;69.67;100877.69;4949792;29;20048;-65
2024/01/22 00:38:58;;;;;;;4.20;2.25;;;;;;;7.38;69.40;100849.28;4945134;29;20067;-65
2024/01/22 00:41:25;;;;;;;7.53;2.90;;;;;;;7.38;68.73;100841.25;4946547;29;20394;-65
2024/01/22 00:43:53;;;;;;;6.40;3.13;;;;;;;7.37;69.84;100857.50;4947333;29;20051;-65
2024/01/22 00:46:21;;;;;;;5.85;2.10;;;;;;;7.39;69.06;100842.91;4945153;29;20070;-65
2024/01/22 00:48:49;;;;;;;5.07;2.10;;;;;;;7.39;69.87;100834.88;4946800;29;20060;-64
2024/01/22 00:51:19;;;;;;;6.20;2.33;;;;;;;7.41;70.02;100813.28;4945952;29;20051;-64
2024/01/22 00:53:46;;;;;;;6.25;2.30;;;;;;;7.40;69.63;100827.69;4945473;29;20111;-65
2024/01/22 00:56:14;;;;;;;6.63;2.60;;;;;;;7.39;69.57;100818.84;4948368;29;20054;-65
2024/01/22 00:58:42;;;;;;;6.57;2.40;;;;;;;7.42;70.01;100813.09;4945989;29;20126;-65
2024/01/22 01:01:10;;;;;;;5.35;2.15;;;;;;;7.43;69.48;100800.53;4936925;29;20553;-65
2024/01/22 01:03:38;;;;;;;3.83;1.90;;;;;;;7.45;69.45;100804.66;4956075;29;20051;-65
2024/01/22 01:06:06;;;;;;;3.80;2.22;;;;;;;7.44;69.90;100815.56;4953496;29;20055;-65
2024/01/22 01:08:35;;;;;;;2.92;1.92;;;;;;;7.45;69.12;100825.22;4947569;29;20134;-65
2024/01/22 01:11:03;;;;;;;3.78;2.45;;;;;;;7.46;70.05;100822.34;4940038;29;20139;-65
2024/01/22 01:13:31;;;;;;;4.97;2.40;;;;;;;7.57;71.15;100801.41;4944459;29;20588;-65
2024/01/22 01:15:59;;;;;;;6.38;2.28;;;;;;;7.49;69.90;100795.22;4943144;29;20055;-65
2024/01/22 01:18:27;;;;;;;5.05;2.55;;;;;;;7.50;70.34;100802.22;4945488;29;20103;-65
2024/01/22 01:20:55;;;;;;;4.30;2.25;;;;;;;7.49;70.36;100792.53;4946777;29;20052;-65
2024/01/22 01:23:22;;;;;;;4.57;2.30;;;;;;;7.46;69.90;100798.28;4939273;29;20059;-65
2024/01/22 01:25:52;;;;;;;4.63;2.20;;;;;;;7.53;69.53;100787.59;4943731;29;20051;-65
2024/01/22 01:28:19;;;;;;;5.68;2.25;;;;;;;7.54;70.14;100778.56;4945338;29;20054;-65
2024/01/22 01:30:47;;;;;;;3.75;1.88;;;;;;;7.61;69.80;100775.91;4946528;29;20055;-65
2024/01/22 01:33:15;;;;;;;5.13;2.40;;;;;;;7.56;70.14;100799.75;4943766;29;20058;-65
2024/01/22 01:35:44;;;;;;;3.58;1.90;;;;;;;7.55;69.73;100758.81;4946524;29;20074;-65
2024/01/22 01:38:12;;;;;;;5.20;2.53;;;;;;;7.61;69.73;100776.72;4943814;29;20062;-65
2024/01/22 01:40:41;;;;;;;3.72;1.83;;;;;;;7.59;69.92;100768.06;4945681;29;20055;-65
2024/01/22 01:43:10;;;;;;;4.13;1.80;;;;;;;7.61;69.69;100760.66;4943917;29;20059;-65
2024/01/22 01:45:37;;;;;;;3.38;2.00;;;;;;;7.63;70.20;100742.56;4945561;29;20481;-65
2024/01/22 01:48:06;;;;;;;3.35;1.60;;;;;;;7.69;69.81;100723.03;4941605;29;20047;-66
2024/01/22 01:50:34;;;;;;;3.03;1.90;;;;;;;7.69;69.95;100730.22;4945134;29;20079;-65
2024/01/22 01:53:03;;;;;;;4.40;1.75;;;;;;;7.68;69.83;100717.88;4945596;29;20556;-65
2024/01/22 01:55:32;;;;;;;3.45;2.00;;;;;;;7.79;69.69;100714.59;4944168;29;20064;-65
2024/01/22 01:58:00;;;;;;;4.47;1.58;;;;;;;7.77;69.70;100705.94;4938311;29;20047;-65
2024/01/22 02:00:34;;;;;;;2.67;1.77;;;;;;;7.90;69.87;100711.28;4948818;29;20115;-65
2024/01/22 02:03:02;;;;;;;6.38;1.83;;;;;;;7.82;69.84;100715.00;4945340;29;20067;-65
2024/01/22 02:05:30;;;;;;;4.10;1.50;;;;;;;7.84;69.99;100704.09;4944851;29;20086;-65
2024/01/22 02:07:58;;;;;;;4.25;1.80;;;;;;;7.84;70.03;100701.41;4933808;29;20081;-64
2024/01/22 02:10:28;;;;;;;4.15;1.50;;;;;;;7.81;70.52;100708.00;4945437;29;20062;-65
2024/01/22 02:12:56;;;;;;;5.47;1.52;;;;;;;7.82;70.68;100706.97;4942845;29;20052;-65
2024/01/22 02:15:23;;;;;;;8.15;2.03;;;;;;;7.87;70.28;100706.34;4942755;29;20258;-66
2024/01/22 02:17:53;;;;;;;4.53;1.58;;;;;;;7.84;70.14;100731.66;4938524;29;20106;-65
2024/01/22 02:20:21;;;;;;;3.97;2.08;;;;;;;7.83;70.69;100686.38;4944857;29;20055;-66
2024/01/22 02:22:49;;;;;;;5.05;1.95;;;;;;;7.98;69.96;100672.78;4944514;29;20099;-66
2024/01/22 02:25:18;;;;;;;4.40;1.75;;;;;;;8.00;71.03;100673.41;4944342;29;20083;-66
2024/01/22 02:27:46;;;;;;;5.97;1.45;;;;;;;7.94;70.70;100663.53;4944684;29;20082;-66
2024/01/22 02:30:14;;;;;;;4.13;2.25;;;;;;;7.89;70.71;100671.34;4937586;29;20173;-66
2024/01/22 02:32:42;;;;;;;3.80;1.77;;;;;;;7.90;70.64;100660.44;4944968;29;20058;-66
2024/01/22 02:35:10;;;;;;;4.13;1.60;;;;;;;7.95;71.07;100657.16;4941674;29;20052;-66
2024/01/22 02:37:38;;;;;;;5.88;2.38;;;;;;;7.92;71.02;100644.19;4943220;29;20127;-64
2024/01/22 02:40:07;;;;;;;2.50;1.40;;;;;;;7.87;71.08;100636.78;4944146;29;20367;-65
2024/01/22 02:42:36;;;;;;;3.35;1.70;;;;;;;7.89;71.31;100633.91;4945349;29;20044;-65
2024/01/22 02:45:04;;;;;;;3.13;1.70;;;;;;;7.88;71.38;100622.38;4943257;29;20058;-65
2024/01/22 02:47:32;;;;;;;3.63;1.67;;;;;;;7.86;71.56;100620.94;4944860;29;20056;-65
2024/01/22 02:50:01;;;;;;;5.03;2.00;;;;;;;7.86;70.92;100607.56;4944283;29;20131;-66
2024/01/22 02:52:29;;;;;;;2.72;2.05;;;;;;;7.97;70.69;100598.88;4945233;29;20075;-65
2024/01/22 02:54:58;;;;;;;3.50;1.60;;;;;;;7.89;70.22;100589.22;4950141;29;20123;-65
2024/01/22 02:57:26;;;;;;;3.85;1.60;;;;;;;7.89;70.77;100583.06;4943759;29;20593;-66
2024/01/22 02:59:55;;;;;;;3.20;1.40;;;;;;;7.88;70.88;100581.41;4952959;29;20051;-64
2024/01/22 03:02:23;;;;;;;3.42;1.50;;;;;;;7.91;71.75;100578.31;4950010;29;20118;-64
2024/01/22 03:04:51;;;;;;;4.97;1.80;;;;;;;7.91;70.83;100563.09;4945810;29;20048;-65
2024/01/22 03:07:18;;;;;;;3.42;1.33;;;;;;;7.92;71.14;100571.94;4954125;29;20397;-64
2024/01/22 03:09:46;;;;;;;2.17;1.35;;;;;;;7.92;70.24;100564.72;4949201;29;20047;-66
2024/01/22 03:12:14;;;;;;;2.55;1.40;;;;;;;7.91;71.39;100556.91;4957562;29;20076;-65
2024/01/22 03:14:42;;;;;;;2.83;1.50;;;;;;;7.96;71.76;100557.09;4952604;29;20051;-66
2024/01/22 03:17:11;;;;;;;1.90;1.27;;;;;;;7.95;71.41;100550.94;4946461;29;20047;-66
2024/01/22 03:19:39;;;;;;;2.88;1.40;;;;;;;7.97;71.33;100540.84;4948307;29;20047;-66
2024/01/22 03:22:07;;;;;;;2.45;1.13;;;;;;;7.98;71.14;100539.81;4946226;29;20059;-66
2024/01/22 03:24:37;;;;;;;2.85;1.50;;;;;;;7.99;71.08;100551.31;4946784;29;20047;-66
2024/01/22 03:27:05;;;;;;;3.05;1.25;;;;;;;8.02;72.70;100542.88;4948016;29;20054;-66
2024/01/22 03:29:33;;;;;;;3.85;1.58;;;;;;;7.98;72.08;100520.25;4942871;29;20048;-64
2024/01/22 03:32:01;;;;;;;2.10;1.40;;;;;;;8.03;71.33;100528.47;4946864;29;20044;-64
2024/01/22 03:34:30;;;;;;;2.15;1.27;;;;;;;8.00;71.58;100529.72;4947234;29;20111;-66
2024/01/22 03:36:58;;;;;;;3.03;1.73;;;;;;;8.01;71.70;100527.84;4944061;29;20044;-65
2024/01/22 03:39:26;;;;;;;2.67;1.60;;;;;;;8.07;72.08;100529.69;4942885;29;20094;-65
2024/01/22 03:41:53;;;;;;;2.97;1.55;;;;;;;8.07;71.55;100525.16;4947635;29;20070;-66
2024/01/22 03:44:21;;;;;;;2.08;1.30;;;;;;;8.05;72.84;100521.88;4948635;29;20048;-66
2024/01/22 03:46:49;;;;;;;2.10;1.40;;;;;;;8.09;72.11;100511.56;4945427;29;20103;-64
2024/01/22 03:49:17;;;;;;;5.30;1.45;;;;;;;8.05;72.33;100510.34;4947012;29;20079;-65
2024/01/22 03:51:46;;;;;;;2.33;0.90;;;;;;;8.05;73.13;100487.06;4941492;29;20055;-65
2024/01/22 03:54:14;;;;;;;2.40;1.55;;;;;;;8.06;72.18;100480.69;4951736;28;20063;-65
2024/01/22 03:56:43;;;;;;;3.47;1.40;;;;;;;8.08;72.79;100496.53;4956038;29;20043;-65
2024/01/22 03:59:11;;;;;;;2.03;1.10;;;;;;;8.09;73.22;100498.16;4963274;29;20055;-65
2024/01/22 04:01:39;;;;;;;3.90;1.60;;;;;;;8.10;72.93;100502.50;4965297;29;20151;-66
2024/01/22 04:04:07;;;;;;;2.15;1.48;;;;;;;8.18;72.02;100504.91;4966830;29;20051;-66
2024/01/22 04:06:35;;;;;;;2.35;1.38;;;;;;;8.14;72.93;100499.16;4964642;28;20074;-65
2024/01/22 04:09:04;;;;;;;2.60;1.27;;;;;;;8.11;73.05;100490.75;4962360;29;20106;-65
2024/01/22 04:11:32;;;;;;;1.30;1.20;;;;;;;8.10;72.64;100494.47;4959448;29;20458;-65
2024/01/22 04:13:59;;;;;;;3.55;1.42;;;;;;;8.10;72.28;100484.56;4967180;29;20051;-65
2024/01/22 04:16:27;;;;;;;2.22;1.20;;;;;;;8.16;72.49;100493.59;4964416;29;20051;-65
2024/01/22 04:18:55;;;;;;;3.03;1.20;;;;;;;8.15;72.72;100491.97;4965209;29;20054;-65
2024/01/22 04:21:23;;;;;;;2.15;1.20;;;;;;;8.11;72.63;100488.06;4966903;29;20062;-65
2024/01/22 04:23:51;;;;;;;3.83;1.30;;;;;;;8.21;72.80;100477.72;4960355;29;20051;-65
2024/01/22 04:26:20;;;;;;;2.70;1.40;;;;;;;8.17;73.44;100481.84;4965470;28;20055;-65
2024/01/22 04:28:48;;;;;;;2.35;1.30;;;;;;;8.07;73.57;100460.91;4958653;29;20070;-66
2024/01/22 04:31:16;;;;;;;2.33;1.17;;;;;;;8.14;73.13;100479.63;4966419;29;20509;-65
2024/01/22 04:33:44;;;;;;;1.65;1.13;;;;;;;8.12;73.55;100470.97;4961652;29;20051;-66
2024/01/22 04:36:12;;;;;;;1.75;1.13;;;;;;;8.18;72.70;100467.44;4964504;29;20039;-64
2024/01/22 04:38:40;;;;;;;3.17;1.00;;;;;;;8.08;73.18;100461.75;4965395;29;20055;-65
2024/01/22 04:41:08;;;;;;;3.75;1.20;;;;;;;8.16;72.88;100466.84;4965233;29;20066;-64
2024/01/22 04:43:37;;;;;;;2.97;1.30;;;;;;;8.26;73.42;100469.84;4964473;29;20055;-65
2024/01/22 04:46:05;;;;;;;1.98;1.23;;;;;;;8.29;72.99;100457.91;4965082;29;20059;-65
2024/01/22 04:48:32;;;;;;;3.35;1.10;;;;;;;8.29;72.69;100471.28;4961458;29;20055;-65
2024/01/22 04:51:00;;;;;;;2.50;1.30;;;;;;;8.23;73.09;100461.44;4966317;29;20050;-64
2024/01/22 04:53:28;;;;;;;2.08;1.30;;;;;;;8.22;73.89;100465.16;4966220;29;20138;-64
2024/01/22 04:55:56;;;;;;;1.48;1.02;;;;;;;8.25;73.45;100452.16;4954867;29;20266;-64
2024/01/22 04:58:24;;;;;;;3.25;1.27;;;;;;;8.26;73.27;100458.34;4942200;29;20051;-64
2024/01/22 05:00:53;;;;;;;2.45;1.20;;;;;;;8.30;73.19;100456.88;4946561;29;20056;-64
2024/01/22 05:03:21;;;;;;;4.43;1.30;;;;;;;8.31;73.30;100458.50;4941141;29;20052;-65
2024/01/22 05:05:49;;;;;;;2.00;1.13;;;;;;;8.33;73.12;100443.91;4946428;29;20110;-65
2024/01/22 05:08:17;;;;;;;1.25;0.90;;;;;;;8.32;73.09;100455.59;4946718;29;20086;-64
2024/01/22 05:10:44;;;;;;;1.40;1.10;;;;;;;8.33;73.12;100472.53;4943616;29;20052;-65
2024/01/22 05:13:13;;;;;;;2.55;1.20;;;;;;;8.36;73.57;100464.06;4946911;29;20086;-65
2024/01/22 05:15:41;;;;;;;1.92;1.10;;;;;;;8.33;74.02;100454.59;4945551;29;20059;-65
2024/01/22 05:18:10;;;;;;;2.15;0.90;;;;;;;8.34;73.61;100461.59;4946009;29;20047;-65
2024/01/22 05:20:39;;;;;;;2.47;1.00;;;;;;;8.41;73.13;100469.59;4933292;29;20048;-66
2024/01/22 05:23:06;;;;;;;1.50;1.00;;;;;;;8.45;73.78;100452.88;4946110;29;20071;-66
2024/01/22 05:25:34;;;;;;;1.40;1.10;;;;;;;8.47;73.65;100461.50;4943680;29;20054;-65
2024/01/22 05:28:02;;;;;;;2.35;1.00;;;;;;;8.45;73.93;100455.53;4942344;29;20048;-65
2024/01/22 05:30:30;;;;;;;1.42;1.10;;;;;;;8.43;73.45;100468.34;4942026;29;20051;-65
2024/01/22 05:32:58;;;;;;;1.75;1.20;;;;;;;8.42;73.64;100457.84;4946677;29;20079;-64
2024/01/22 05:35:27;;;;;;;2.13;0.90;;;;;;;8.43;73.94;100462.97;4950054;29;20090;-63
2024/01/22 05:37:55;;;;;;;2.00;0.90;;;;;;;8.43;73.48;100478.22;4944314;29;20056;-64
2024/01/22 05:40:22;;;;;;;2.15;1.05;;;;;;;8.43;73.56;100472.88;4941612;29;20048;-64
2024/01/22 05:42:50;;;;;;;2.50;1.83;;;;;;;8.43;73.92;100470.19;4930693;29;20088;-64
2024/01/22 05:45:18;;;;;;;5.30;1.52;;;;;;;8.40;73.62;100468.75;4945877;29;20122;-64
2024/01/22 05:47:46;;;;;;;2.25;1.08;;;;;;;8.45;73.61;100465.44;4956099;29;20079;-64
2024/01/22 05:50:14;;;;;;;0.68;0.68;;;;;;;8.45;74.43;100466.25;4946695;29;20055;-64
2024/01/22 05:52:43;;;;;;;2.92;1.13;;;;;;;8.45;73.68;100468.94;4942953;29;20080;-64
2024/01/22 05:55:12;;;;;;;2.80;1.00;;;;;;;8.46;73.97;100465.22;4944049;29;20056;-65
2024/01/22 05:57:45;;;;;;;0.98;0.60;;;;;;;8.48;73.90;100475.72;4944609;29;20135;-64
2024/01/22 06:00:14;;;;;;;2.75;0.90;;;;;;;8.54;74.08;100477.53;4942770;29;20118;-64
2024/01/22 06:02:42;;;;;;;3.20;1.05;;;;;;;8.53;73.36;100459.00;4944238;29;20048;-65
2024/01/22 06:05:10;;;;;;;1.42;1.00;;;;;;;8.56;73.32;100466.59;4945132;29;20123;-65
2024/01/22 06:07:38;;;;;;;1.42;0.90;;;;;;;8.54;73.84;100464.13;4940440;29;20051;-64
2024/01/22 06:10:09;;;;;;;2.25;1.02;;;;;;;8.53;73.53;100472.38;4945412;29;20083;-64
2024/01/22 06:12:37;;;;;;;1.95;0.90;;;;;;;8.53;74.11;100459.81;4942993;29;20077;-64
2024/01/22 06:15:05;;;;;;;1.50;1.00;;;;;;;8.58;73.68;100467.19;4944358;29;20056;-63
2024/01/22 06:17:33;;;;;;;1.02;0.88;;;;;;;8.55;73.26;100468.44;4938767;29;20079;-63
2024/01/22 06:20:03;;;;;;;1.58;0.80;;;;;;;8.53;74.12;100475.88;4940273;29;20083;-63
2024/01/22 06:22:33;;;;;;;1.42;0.90;;;;;;;8.54;73.81;100482.88;4942869;29;20103;-62
2024/01/22 06:25:03;;;;;;;1.38;1.02;;;;;;;8.61;73.68;100480.97;4944767;29;20141;-61
2024/01/22 06:27:32;;;;;;;1.45;0.80;;;;;;;8.76;73.40;100494.00;4948501;29;20133;-63
2024/01/22 06:30:01;;;;;;;1.10;0.77;;;;;;;8.89;73.15;100485.88;4945733;29;20058;-62
2024/01/22 06:32:29;;;;;;;1.45;0.82;;;;;;;9.04;73.16;100491.72;4593246;29;10000096;-63
2024/01/22 06:34:57;;;;;;;3.92;1.30;;;;;;;9.21;72.20;100493.81;4941692;29;20079;-63
2024/01/22 06:37:25;;;;;;;2.50;1.05;;;;;;;9.42;71.91;100488.84;4944265;29;20070;-64
2024/01/22 06:39:53;;;;;;;2.63;1.17;;;;;;;9.55;71.89;100498.63;4941007;29;20056;-65
2024/01/22 06:42:21;;;;;;;1.85;1.10;;;;;;;9.56;71.50;100496.75;4944197;29;20043;-62
2024/01/22 06:45:02;;;;;;;3.63;0.70;;;;;;;9.50;71.64;100471.66;4941025;29;20043;-63
2024/01/22 06:47:30;;;;;;;1.38;1.10;;;;;;;9.48;71.38;100494.38;4945417;29;20047;-61
2024/01/22 06:49:58;;;;;;;1.75;1.00;;;;;;;9.37;72.05;100488.69;4945433;29;20055;-60
2024/01/22 06:52:26;;;;;;;0.95;0.75;;;;;;;9.30;72.24;100489.81;4946042;29;20050;-61
2024/01/22 06:54:55;;;;;;;2.92;1.25;;;;;;;9.22;72.76;100490.09;4949258;28;20062;-60
2024/01/22 06:57:23;;;;;;;4.03;1.40;;;;;;;9.14;73.12;100496.56;4945308;29;20058;-66
2024/01/22 06:59:52;;;;;;;2.47;1.20;;;;;;;9.08;73.38;100497.44;4949319;29;20051;-66
2024/01/22 07:02:26;;;;;;;1.67;0.90;;;;;;;9.03;73.53;100502.66;4938953;29;20044;-67
2024/01/22 07:04:55;;;;;;;3.10;1.10;;;;;;;9.03;73.35;100502.66;4954583;29;20047;-66
2024/01/22 07:07:24;;;;;;;2.28;0.80;;;;;;;9.02;73.35;100503.69;4956876;29;20059;-66
2024/01/22 07:09:51;;;;;;;3.92;1.63;;;;;;;9.01;74.12;100515.44;4944619;29;20064;-65
2024/01/22 07:12:20;;;;;;;3.60;1.23;;;;;;;9.00;73.67;100514.63;4936738;29;20087;-66
2024/01/22 07:14:48;;;;;;;2.25;0.70;;;;;;;8.99;73.46;100515.69;4948066;29;20048;-66
2024/01/22 07:17:17;;;;;;;1.92;1.10;;;;;;;8.94;74.65;100515.50;4946346;29;20051;-65
2024/01/22 07:19:47;;;;;;;2.17;0.85;;;;;;;8.97;74.75;100503.53;4946126;29;20062;-65
2024/01/22 07:22:15;;;;;;;2.65;1.15;;;;;;;8.95;75.24;100508.28;4942779;29;20045;-68
2024/01/22 07:24:42;;;;;;;1.75;1.00;;;;;;;9.04;74.57;100498.94;4939648;29;20051;-68
2024/01/22 07:27:10;;;;;;;3.72;1.00;;;;;;;9.02;74.38;100501.00;4953726;29;20059;-68
2024/01/22 07:29:38;;;;;;;1.98;1.23;;;;;;;9.06;73.50;100502.22;4949137;29;20063;-67
2024/01/22 07:32:07;;;;;;;2.13;1.58;;;;;;;8.98;74.54;100495.28;4949310;29;20055;-68
2024/01/22 07:34:34;;;;;;;1.63;1.00;;;;;;;8.98;74.69;100503.31;4937588;29;20082;-68
2024/01/22 07:37:06;;;;;;;2.38;1.00;;;;;;;9.00;74.20;100503.91;4937203;29;20058;-68
2024/01/22 07:39:34;;;;;;;2.03;1.00;;;;;;;9.00;74.45;100501.22;4949010;29;20058;-68
2024/01/22 07:42:02;;;;;;;4.70;1.05;;;;;;;8.99;74.75;100496.91;4948107;29;20115;-68
2024/01/22 07:44:30;;;;;;;3.63;0.93;;;;;;;9.03;74.87;100499.97;4946423;29;20060;-68
2024/01/22 07:46:58;;;;;;;2.60;1.00;;;;;;;9.10;74.49;100501.56;4945515;29;20112;-68
2024/01/22 07:49:26;;;;;;;3.72;1.00;;;;;;;9.11;74.31;100500.50;4943264;29;20052;-68
2024/01/22 07:51:54;;;;;;;3.70;1.20;;;;;;;9.03;74.20;100498.13;4947605;29;20054;-67
2024/01/22 07:54:23;;;;;;;2.33;1.05;;;;;;;8.99;74.76;100502.28;4949961;29;20063;-68
2024/01/22 07:56:51;;;;;;;4.65;1.38;;;;;;;8.98;74.79;100487.22;4964896;29;20058;-68
2024/01/22 07:59:19;;;;;;;3.42;1.23;;;;;;;8.97;74.67;100485.59;4965809;28;20050;-67
2024/01/22 08:01:47;;;;;;;7.90;1.40;;;;;;;9.02;74.69;100484.94;4965088;29;20466;-68
2024/01/22 08:04:15;;;;;;;8.35;1.80;;;;;;;9.02;74.62;100491.09;4966829;29;20083;-68
2024/01/22 08:06:43;;;;;;;4.22;1.25;;;;;;;9.07;74.58;100491.28;4963182;29;20051;-68
2024/01/22 08:09:11;;;;;;;6.78;1.75;;;;;;;9.06;74.59;100502.22;4967415;29;20047;-67
2024/01/22 08:11:41;;;;;;;3.10;1.15;;;;;;;9.18;74.38;100494.25;4966124;28;20096;-68
2024/01/22 08:14:09;;;;;;;3.75;1.35;;;;;;;9.12;74.36;100498.66;4967191;29;20051;-67
2024/01/22 08:16:36;;;;;;;6.95;2.03;;;;;;;9.08;74.44;100495.59;4967204;29;20047;-68
2024/01/22 08:19:04;;;;;;;6.65;2.33;;;;;;;9.25;73.65;100495.03;4968038;29;20055;-68
2024/01/22 08:21:33;;;;;;;8.23;1.88;;;;;;;9.36;73.80;100492.44;4962298;29;20417;-68
2024/01/22 08:24:00;;;;;;;7.78;2.38;;;;;;;9.61;72.74;100500.41;4966593;29;20047;-68
2024/01/22 08:26:28;;;;;;;6.50;1.70;;;;;;;9.79;72.53;100497.72;4966570;29;20051;-68
2024/01/22 08:28:57;;;;;;;5.13;1.70;;;;;;;10.13;71.18;100495.44;4957663;29;20112;-68
2024/01/22 08:31:25;;;;;;;12.05;2.15;;;;;;;10.18;71.32;100510.84;4966644;29;20047;-68
2024/01/22 08:33:54;;;;;;;12.20;2.15;;;;;;;10.28;71.10;100519.22;4966615;29;20099;-68
2024/01/22 08:36:22;;;;;;;8.77;2.63;;;;;;;10.46;70.34;100518.31;4966648;29;20067;-69
2024/01/22 08:38:50;;;;;;;8.00;1.80;;;;;;;10.59;69.75;100527.00;4962928;29;20123;-68
2024/01/22 08:41:18;;;;;;;7.03;1.60;;;;;;;10.71;69.36;100535.91;4964216;29;20051;-67
2024/01/22 08:43:46;;;;;;;8.10;1.90;;;;;;;10.80;69.20;100522.97;4966778;29;20047;-68
2024/01/22 08:46:15;;;;;;;6.25;1.88;;;;;;;10.88;68.86;100554.06;4961212;29;20056;-68
2024/01/22 08:48:43;;;;;;;8.73;2.58;;;;;;;10.99;68.32;100543.31;4959024;28;20062;-68
2024/01/22 08:51:11;;;;;;;8.73;2.15;;;;;;;10.89;68.69;100555.69;4969710;28;20502;-67
2024/01/22 08:53:39;;;;;;;7.50;2.28;;;;;;;10.73;69.13;100538.38;4966054;29;20462;-68
2024/01/22 08:56:07;;;;;;;12.30;3.50;;;;;;;10.49;70.06;100548.22;4960895;28;20056;-68
2024/01/22 08:58:35;;;;;;;8.20;2.55;;;;;;;10.32;70.63;100568.75;4961544;28;20130;-67
2024/01/22 09:01:05;;;;;;;9.18;1.75;;;;;;;10.16;71.45;100554.03;4966080;29;20047;-68
2024/01/22 09:03:37;;;;;;;10.25;2.97;;;;;;;10.02;72.30;100566.00;4963034;28;20054;-68
2024/01/22 09:06:05;;;;;;;7.20;2.13;;;;;;;10.08;71.74;100563.22;4967669;28;20055;-67
2024/01/22 09:08:34;;;;;;;6.97;1.92;;;;;;;9.95;72.22;100549.16;4962102;29;20074;-67
2024/01/22 09:11:02;;;;;;;8.73;2.10;;;;;;;9.87;72.38;100550.28;4964208;29;20497;-68
2024/01/22 09:13:30;;;;;;;10.70;1.98;;;;;;;9.86;72.48;100551.31;4965983;29;20066;-67
2024/01/22 09:15:58;;;;;;;13.48;1.95;;;;;;;9.79;72.93;100545.19;4966354;28;20051;-67
2024/01/22 09:18:27;;;;;;;14.02;2.97;;;;;;;9.76;73.12;100546.47;4966296;29;20079;-67
2024/01/22 09:20:56;;;;;;;6.55;1.92;;;;;;;9.75;73.04;100536.78;4963082;29;20066;-66
2024/01/22 09:23:24;;;;;;;6.70;2.03;;;;;;;9.73;72.96;100546.09;4959303;29;20067;-67
2024/01/22 09:25:52;;;;;;;8.20;2.13;;;;;;;9.67;73.44;100542.44;4963428;29;20053;-67
2024/01/22 09:28:21;;;;;;;8.18;2.15;;;;;;;9.61;73.42;100532.59;4964838;29;20051;-67
2024/01/22 09:30:49;;;;;;;14.90;2.50;;;;;;;9.54;73.83;100528.34;4963158;29;20138;-67
2024/01/22 09:33:17;;;;;;;12.15;3.28;;;;;;;9.58;73.93;100541.09;4958078;29;20074;-67
2024/01/22 09:35:46;;;;;;;13.30;2.70;;;;;;;9.55;74.03;100533.50;4962155;29;20053;-68
2024/01/22 09:38:15;;;;;;;9.20;2.55;;;;;;;9.56;74.19;100545.03;4965708;29;20061;-68
2024/01/22 09:40:43;;;;;;;8.02;2.05;;;;;;;9.62;73.71;100547.66;4964118;29;20055;-66
2024/01/22 09:43:11;;;;;;;7.60;1.73;;;;;;;9.58;74.10;100546.47;4960787;29;20134;-67
2024/01/22 09:45:39;;;;;;;10.50;2.65;;;;;;;9.54;74.96;100552.50;4965484;29;20087;-67
2024/01/22 09:48:09;;;;;;;14.65;2.65;;;;;;;9.56;74.62;100539.69;4960109;28;20134;-67
2024/01/22 09:50:37;;;;;;;7.28;2.00;;;;;;;9.83;73.71;100564.38;4960766;29;20082;-67
2024/01/22 09:53:09;;;;;;;6.95;1.98;;;;;;;10.01;73.32;100556.31;4956694;29;20043;-67
2024/01/22 09:55:40;;;;;;;11.10;2.30;;;;;;;10.13;72.85;100556.38;4965450;29;20127;-68
2024/01/22 09:58:09;;;;;;;9.93;2.20;;;;;;;10.26;72.63;100573.16;4959449;29;20146;-67
2024/01/22 10:00:39;;;;;;;11.93;2.40;;;;;;;10.46;72.03;100580.94;4964458;29;20047;-67
2024/01/22 10:03:07;;;;;;;5.20;1.55;;;;;;;10.58;71.64;100586.34;4962617;29;20079;-67
2024/01/22 10:05:35;;;;;;;9.63;2.15;;;;;;;10.69;71.70;100593.63;4961308;29;20075;-68
2024/01/22 10:08:04;;;;;;;6.75;2.33;;;;;;;10.80;71.21;100595.53;4961841;29;20047;-68
2024/01/22 10:10:31;;;;;;;8.95;2.17;;;;;;;10.94;70.72;100599.66;4964251;28;20469;-68
2024/01/22 10:13:03;;;;;;;8.13;2.20;;;;;;;10.99;69.97;100594.41;4957578;28;20051;-68
2024/01/22 10:15:33;;;;;;;7.43;1.80;;;;;;;10.93;70.73;100602.59;4955321;29;20147;-67
2024/01/22 10:18:13;;;;;;;11.52;2.20;;;;;;;10.80;71.03;100600.91;4961967;29;20054;-67
2024/01/22 10:20:43;;;;;;;9.98;2.25;;;;;;;10.65;71.78;100601.31;4965626;29;20162;-67
2024/01/22 10:23:11;;;;;;;8.63;2.55;;;;;;;10.48;72.67;100607.56;4962163;29;20735;-68
2024/01/22 10:25:39;;;;;;;9.45;2.20;;;;;;;10.32;73.34;100612.53;4949745;29;20081;-67
2024/01/22 10:28:16;;;;;;;9.30;2.03;;;;;;;10.28;73.38;100623.97;4960879;29;20059;-67
2024/01/22 10:30:45;;;;;;;9.20;2.33;;;;;;;10.21;73.96;100633.97;4964688;29;20212;-66
2024/01/22 10:33:14;;;;;;;11.15;2.08;;;;;;;10.16;74.13;100623.88;4950411;29;20052;-67
2024/01/22 10:35:43;;;;;;;13.20;2.67;;;;;;;10.14;74.08;100639.38;4960116;29;20066;-67
2024/01/22 10:38:13;;;;;;;10.10;2.55;;;;;;;10.11;74.23;100651.38;4960057;29;20054;-68
2024/01/22 10:40:41;;;;;;;11.05;2.33;;;;;;;10.07;74.65;100652.88;4957206;29;20055;-67
2024/01/22 10:43:26;;;;;;;11.98;1.95;;;;;;;10.03;74.84;100677.72;4961026;29;20055;-66
2024/01/22 10:45:56;;;;;;;11.30;2.40;;;;;;;9.94;75.78;100712.09;4957345;29;20048;-66
2024/01/22 10:48:27;;;;;;;10.48;3.00;;;;;;;9.90;76.35;100700.13;4965002;29;20079;-66
2024/01/22 10:51:10;;;;;;;13.85;2.60;;;;;;;9.79;75.90;100693.63;4960617;29;20051;-66
2024/01/22 10:53:39;;;;;;;14.18;3.45;;;;;;;9.72;76.04;100679.44;4963858;28;20454;-68
2024/01/22 10:56:16;;;;;;;14.13;2.70;;;;;;;9.65;75.39;100688.59;4962862;29;20059;-67
2024/01/22 10:58:46;;;;;;;15.18;3.83;;;;;;;9.61;75.46;100693.59;4963517;29;20057;-67
2024/01/22 11:01:19;;;;;;;12.68;3.28;;;;;;;9.62;75.10;100683.66;4964073;29;20525;-66
2024/01/22 11:03:49;;;;;;;22.65;4.18;;;;;;;9.58;75.52;100677.09;4960939;29;20457;-67
2024/01/22 11:06:22;;;;;;;19.25;3.63;;;;;;;9.53;74.81;100687.66;4965160;29;20051;-67
2024/01/22 11:08:51;;;;;;;18.10;4.57;;;;;;;9.45;74.78;100686.06;4964325;29;20059;-66
2024/01/22 11:11:19;;;;;;;24.90;3.80;;;;;;;9.45;75.15;100678.84;4961491;29;20059;-67
2024/01/22 11:13:52;;;;;;;20.88;4.55;;;;;;;9.48;74.48;100698.22;4957867;29;20077;-70
2024/01/22 11:16:21;;;;;;;19.77;4.28;;;;;;;9.44;74.95;100690.63;4964989;28;20055;-68
2024/01/22 11:18:56;;;;;;;15.93;3.50;;;;;;;9.44;74.94;100703.22;4964890;29;20130;-68
2024/01/22 11:21:25;;;;;;;20.92;4.22;;;;;;;9.44;74.81;100698.66;4966092;28;20059;-69
2024/01/22 11:24:10;;;;;;;17.05;3.22;;;;;;;9.44;74.47;100713.94;4955757;29;20135;-68
2024/01/22 11:26:43;;;;;;;17.30;4.20;;;;;;;9.46;74.99;100712.69;4966869;28;20259;-69
2024/01/22 11:29:16;;;;;;;16.92;4.30;;;;;;;9.49;75.08;100711.44;4967385;29;20054;-66
2024/01/22 11:31:44;;;;;;;12.48;2.97;;;;;;;9.49;75.15;100703.38;4955346;29;20059;-66
2024/01/22 11:34:15;;;;;;;16.70;3.65;;;;;;;9.49;75.41;100714.09;4960745;29;20681;-66
2024/01/22 11:37:01;;;;;;;23.45;4.25;;;;;;;9.50;75.43;100729.16;4965715;29;20051;-66
2024/01/22 11:39:47;;;;;;;18.50;4.25;;;;;;;9.45;76.17;100731.69;4962058;29;20047;-65